createdAt,value
2019-02-07T00:00:06.325Z,5.25
2019-02-07T00:02:34.672Z,3.98
2019-02-07T00:05:02.147Z,4.72
2019-02-07T00:07:29.599Z,4.12
2019-02-07T00:09:57.056Z,4.95
2019-02-07T00:12:24.518Z,5.08
2019-02-07T00:14:51.972Z,4.72
2019-02-07T00:17:19.437Z,4.28
2019-02-07T00:19:47.299Z,5.20
2019-02-07T00:22:14.762Z,4.62
2019-02-07T00:24:43.210Z,5.05
2019-02-07T00:27:10.876Z,4.00
2019-02-07T00:29:38.333Z,5.17
2019-02-07T00:32:27.245Z,5.25
2019-02-07T00:34:54.669Z,4.37
2019-02-07T00:37:22.133Z,5.15
2019-02-07T00:39:49.604Z,4.08
2019-02-07T00:42:17.072Z,4.75
2019-02-07T00:44:51.010Z,3.65
2019-02-07T00:47:13.625Z,4.20
2019-02-07T00:49:41.384Z,3.77
2019-02-07T00:52:09.004Z,5.08
2019-02-07T00:54:36.469Z,4.33
2019-02-07T00:57:04.023Z,3.95
2019-02-07T00:59:31.485Z,3.95
2019-02-07T01:01:58.939Z,3.92
2019-02-07T01:04:26.389Z,3.72
2019-02-07T01:06:53.852Z,4.08
2019-02-07T01:09:21.317Z,3.47
2019-02-07T01:11:48.860Z,4.58
2019-02-07T01:14:16.452Z,3.58
2019-02-07T01:16:43.881Z,3.95
2019-02-07T01:19:11.401Z,3.72
2019-02-07T01:21:38.834Z,4.40
2019-02-07T01:24:06.751Z,3.35
2019-02-07T01:29:09.660Z,2.72
2019-02-07T01:31:37.121Z,4.15
2019-02-07T01:34:04.699Z,3.60
2019-02-07T01:36:32.153Z,3.42
2019-02-07T01:38:59.910Z,3.50
2019-02-07T01:41:27.377Z,4.53
2019-02-07T01:43:54.832Z,2.92
2019-02-07T01:46:22.291Z,3.92
2019-02-07T01:48:49.745Z,4.03
2019-02-07T01:51:17.252Z,4.30
2019-02-07T01:53:44.706Z,5.85
2019-02-07T01:56:12.157Z,4.80
2019-02-07T01:58:39.624Z,3.55
2019-02-07T02:01:07.088Z,3.05
2019-02-07T02:03:34.541Z,2.85
2019-02-07T02:06:01.995Z,4.03
2019-02-07T02:08:29.458Z,3.85
2019-02-07T02:10:56.908Z,3.25
2019-02-07T02:13:24.376Z,3.55
2019-02-07T02:15:51.833Z,2.90
2019-02-07T02:18:19.344Z,3.05
2019-02-07T02:20:46.820Z,3.17
2019-02-07T02:23:14.269Z,3.25
2019-02-07T02:25:41.739Z,4.67
2019-02-07T02:28:09.190Z,2.83
2019-02-07T02:30:36.655Z,3.30
2019-02-07T02:33:04.507Z,2.42
2019-02-07T02:35:31.968Z,2.98
2019-02-07T02:37:59.423Z,2.60
2019-02-07T02:40:26.896Z,3.33
2019-02-07T02:42:54.351Z,3.47
2019-02-07T02:45:22.223Z,2.60
2019-02-07T02:47:49.664Z,2.83
2019-02-07T02:50:17.999Z,3.12
2019-02-07T02:52:45.493Z,3.00
2019-02-07T02:55:14.529Z,2.75
2019-02-07T02:57:41.988Z,3.00
2019-02-07T03:00:12.588Z,3.15
2019-02-07T03:02:57.952Z,3.52
2019-02-07T03:05:27.013Z,2.90
2019-02-07T03:08:05.093Z,3.72
2019-02-07T03:10:46.223Z,2.37
2019-02-07T03:13:30.759Z,3.33
2019-02-07T03:16:18.216Z,3.40
2019-02-07T03:18:47.238Z,2.47
2019-02-07T03:21:34.748Z,3.17
2019-02-07T03:24:19.847Z,4.10
2019-02-07T03:26:49.023Z,3.17
2019-02-07T03:29:34.520Z,2.83
2019-02-07T03:32:06.305Z,3.83
2019-02-07T03:34:38.362Z,2.98
2019-02-07T03:37:19.778Z,2.72
2019-02-07T03:39:48.845Z,3.60
2019-02-07T03:42:17.888Z,3.10
2019-02-07T03:44:49.648Z,5.40
2019-02-07T03:47:33.765Z,2.67
2019-02-07T03:50:08.798Z,4.37
2019-02-07T03:52:49.763Z,3.42
2019-02-07T03:55:27.549Z,3.27
2019-02-07T03:57:56.581Z,6.47
2019-02-07T04:00:41.077Z,2.40
2019-02-07T04:03:10.154Z,4.62
2019-02-07T04:05:51.121Z,2.83
2019-02-07T04:08:32.605Z,5.70
2019-02-07T04:11:17.423Z,4.37
2019-02-07T04:13:49.405Z,2.98
2019-02-07T04:16:27.541Z,5.55
2019-02-07T04:19:08.808Z,4.75
2019-02-07T04:21:43.812Z,4.75
2019-02-07T04:24:12.826Z,4.60
2019-02-07T04:26:48.037Z,4.60
2019-02-07T04:29:26.119Z,4.72
2019-02-07T04:32:07.507Z,4.03
2019-02-07T04:34:48.248Z,2.75
2019-02-07T04:37:20.159Z,3.37
2019-02-07T04:40:07.581Z,3.52
2019-02-07T04:42:36.617Z,10.35
2019-02-07T04:45:07.261Z,7.75
2019-02-07T04:47:54.417Z,5.35
2019-02-07T04:50:32.325Z,4.00
2019-02-07T04:53:07.256Z,5.03
2019-02-07T04:55:39.278Z,3.12
2019-02-07T04:58:08.327Z,7.12
2019-02-07T05:00:43.388Z,13.18
2019-02-07T05:03:27.506Z,17.30
2019-02-07T05:06:08.508Z,16.95
2019-02-07T05:08:40.588Z,17.60
2019-02-07T05:11:24.601Z,18.45
2019-02-07T05:13:59.686Z,11.57
2019-02-07T05:16:39.232Z,15.58
2019-02-07T05:19:05.481Z,16.62
2019-02-07T05:21:40.577Z,19.80
2019-02-07T05:24:18.972Z,21.42
2019-02-07T05:26:59.542Z,33.30
2019-02-07T05:29:31.608Z,34.92
2019-02-07T05:32:03.632Z,39.35
2019-02-07T05:34:32.673Z,41.90
2019-02-07T05:37:04.158Z,40.70
2019-02-07T05:39:36.037Z,41.85
2019-02-07T05:42:22.747Z,46.37
2019-02-07T05:45:00.969Z,42.17
2019-02-07T05:47:38.957Z,46.60
2019-02-07T05:50:21.520Z,45.65
2019-02-07T05:52:59.778Z,37.60
2019-02-07T05:55:45.332Z,35.00
2019-02-07T05:58:14.360Z,27.77
2019-02-07T06:00:58.507Z,28.45
2019-02-07T06:03:30.721Z,38.17
2019-02-07T06:06:16.370Z,36.23
2019-02-07T06:09:00.508Z,30.02
2019-02-07T06:11:41.577Z,27.25
2019-02-07T06:14:27.049Z,25.05
2019-02-07T06:17:02.664Z,22.65
2019-02-07T06:19:36.062Z,21.80
2019-02-07T06:22:11.133Z,21.17
2019-02-07T06:24:49.206Z,21.30
2019-02-07T06:27:27.417Z,25.95
2019-02-07T06:29:56.493Z,25.20
2019-02-07T06:32:31.332Z,24.15
2019-02-07T06:35:06.226Z,24.67
2019-02-07T06:37:35.807Z,25.25
2019-02-07T06:40:05.455Z,24.87
2019-02-07T06:42:34.493Z,26.37
2019-02-07T06:45:09.364Z,26.68
2019-02-07T06:47:50.344Z,24.02
2019-02-07T06:50:28.329Z,21.62
2019-02-07T06:53:11.176Z,23.18
2019-02-07T06:55:40.153Z,22.17
2019-02-07T06:58:12.320Z,19.95
2019-02-07T07:00:41.349Z,22.22
2019-02-07T07:03:13.375Z,19.95
2019-02-07T07:05:42.400Z,16.67
2019-02-07T07:08:11.436Z,20.17
2019-02-07T07:10:43.349Z,16.23
2019-02-07T07:13:12.580Z,19.85
2019-02-07T07:15:41.607Z,19.92
2019-02-07T07:18:19.985Z,20.90
2019-02-07T07:20:55.266Z,19.98
2019-02-07T07:23:24.703Z,20.30
2019-02-07T07:26:05.446Z,17.98
2019-02-07T07:28:40.445Z,19.48
2019-02-07T07:31:09.475Z,14.85
2019-02-07T07:33:44.036Z,17.02
2019-02-07T07:36:16.071Z,16.93
2019-02-07T07:39:01.843Z,18.52
2019-02-07T07:41:30.877Z,19.07
2019-02-07T07:44:02.790Z,15.28
2019-02-07T07:46:47.853Z,12.78
2019-02-07T07:49:19.385Z,11.03
2019-02-07T07:51:57.240Z,10.60
2019-02-07T07:54:38.519Z,12.20
2019-02-07T07:57:13.051Z,10.15
2019-02-07T07:59:42.100Z,10.05
2019-02-07T08:02:11.134Z,10.90
2019-02-07T08:04:55.074Z,12.35
2019-02-07T08:07:30.212Z,11.83
2019-02-07T08:10:17.233Z,10.78
2019-02-07T08:12:52.269Z,8.95
2019-02-07T08:15:37.663Z,8.85
2019-02-07T08:18:06.701Z,18.00
2019-02-07T08:20:52.409Z,13.45
2019-02-07T08:23:24.449Z,10.75
2019-02-07T08:26:09.725Z,10.85
2019-02-07T08:28:38.758Z,9.43
2019-02-07T08:31:11.258Z,8.38
2019-02-07T08:33:43.285Z,8.48
2019-02-07T08:36:15.042Z,8.13
2019-02-07T08:39:00.446Z,32.23
2019-02-07T08:41:29.682Z,18.10
2019-02-07T08:44:15.289Z,12.80
2019-02-07T08:47:02.926Z,11.22
2019-02-07T08:49:32.110Z,15.85
2019-02-07T08:52:16.207Z,13.43
2019-02-07T08:55:00.304Z,13.35
2019-02-07T08:57:32.755Z,13.68
2019-02-07T09:00:10.855Z,16.62
2019-02-07T09:02:54.869Z,12.60
2019-02-07T09:05:26.635Z,22.48
2019-02-07T09:08:13.200Z,13.58
2019-02-07T09:10:58.786Z,11.35
2019-02-07T09:13:27.813Z,14.23
2019-02-07T09:15:56.857Z,16.02
2019-02-07T09:18:44.285Z,11.85
2019-02-07T09:21:19.359Z,12.13
2019-02-07T09:23:48.388Z,12.03
2019-02-07T09:26:17.433Z,11.63
2019-02-07T09:28:58.453Z,11.38
2019-02-07T09:31:27.492Z,9.90
2019-02-07T09:34:14.606Z,12.35
2019-02-07T09:37:00.160Z,10.90
2019-02-07T09:39:34.717Z,14.07
2019-02-07T09:42:22.176Z,10.63
2019-02-07T09:45:07.534Z,17.62
2019-02-07T09:47:48.660Z,13.13
2019-02-07T09:50:20.793Z,12.30
2019-02-07T09:53:01.843Z,13.65
2019-02-07T09:55:30.868Z,19.62
2019-02-07T09:58:08.869Z,23.27
2019-02-07T10:00:38.312Z,15.15
2019-02-07T10:03:13.110Z,16.30
2019-02-07T10:05:48.193Z,14.05
2019-02-07T10:08:17.225Z,14.18
2019-02-07T10:10:58.311Z,17.05
2019-02-07T10:13:30.546Z,15.20
2019-02-07T10:16:02.104Z,15.70
2019-02-07T10:18:39.821Z,17.50
2019-02-07T10:21:11.844Z,14.70
2019-02-07T10:23:57.275Z,13.05
2019-02-07T10:26:44.700Z,13.53
2019-02-07T10:29:25.810Z,10.75
2019-02-07T10:31:54.846Z,12.75
2019-02-07T10:34:26.946Z,12.37
2019-02-07T10:37:05.140Z,9.73
2019-02-07T10:39:34.220Z,10.85
2019-02-07T10:42:21.634Z,10.75
2019-02-07T10:44:50.719Z,12.13
2019-02-07T10:47:19.701Z,13.53
2019-02-07T10:50:03.835Z,12.47
2019-02-07T10:52:40.137Z,10.95
2019-02-07T10:55:21.390Z,14.95
2019-02-07T10:57:56.181Z,11.83
2019-02-07T11:00:30.970Z,10.28
2019-02-07T11:03:18.173Z,13.98
2019-02-07T11:05:54.642Z,12.73
2019-02-07T11:08:24.023Z,20.23
2019-02-07T11:11:09.051Z,21.02
2019-02-07T11:13:54.497Z,35.60
2019-02-07T11:16:26.533Z,27.65
2019-02-07T11:18:58.308Z,21.27
2019-02-07T11:21:45.579Z,38.63
2019-02-07T11:24:17.587Z,34.53
2019-02-07T11:26:46.637Z,33.05
2019-02-07T11:29:18.548Z,28.65
2019-02-07T11:31:47.580Z,24.87
2019-02-07T11:34:22.654Z,23.15
2019-02-07T11:36:57.453Z,22.02
2019-02-07T11:39:33.214Z,23.10
2019-02-07T11:42:02.268Z,61.98
2019-02-07T11:44:31.314Z,43.10
2019-02-07T11:47:05.644Z,41.42
2019-02-07T11:49:37.133Z,32.35
2019-02-07T11:52:09.158Z,24.92
2019-02-07T11:54:47.088Z,32.70
2019-02-07T11:57:16.137Z,21.87
2019-02-07T11:59:50.988Z,25.20
2019-02-07T12:02:23.186Z,21.35
2019-02-07T12:04:52.232Z,29.75
2019-02-07T12:07:27.054Z,31.35
2019-02-07T12:09:56.142Z,25.32
2019-02-07T12:12:40.527Z,20.30
2019-02-07T12:15:20.075Z,19.95
2019-02-07T12:17:49.112Z,24.95
2019-02-07T12:20:27.288Z,27.93
2019-02-07T12:22:59.340Z,23.45
2019-02-07T12:25:37.376Z,28.35
2019-02-07T12:28:18.734Z,18.65
2019-02-07T12:30:53.837Z,16.00
2019-02-07T12:33:34.763Z,16.55
2019-02-07T12:36:03.849Z,13.35
2019-02-07T12:38:44.483Z,12.18
2019-02-07T12:41:13.966Z,17.50
2019-02-07T12:43:59.542Z,12.73
2019-02-07T12:46:37.544Z,26.02
2019-02-07T12:49:09.583Z,19.00
2019-02-07T12:51:41.357Z,29.48
2019-02-07T12:54:27.045Z,53.35
2019-02-07T12:57:12.442Z,35.10
2019-02-07T12:59:57.548Z,22.05
2019-02-07T13:02:26.581Z,30.27
2019-02-07T13:05:10.984Z,48.55
2019-02-07T13:07:55.237Z,21.75
2019-02-07T13:10:33.094Z,24.47
2019-02-07T13:13:04.578Z,24.55
2019-02-07T13:15:50.165Z,17.87
2019-02-07T13:18:25.422Z,32.65
2019-02-07T13:20:54.518Z,21.40
2019-02-07T13:23:39.891Z,21.27
2019-02-07T13:26:18.312Z,30.12
2019-02-07T13:28:56.508Z,23.92
2019-02-07T13:31:37.630Z,21.70
2019-02-07T13:34:09.617Z,25.02
2019-02-07T13:36:38.656Z,27.90
2019-02-07T13:39:11.028Z,24.35
2019-02-07T13:41:43.065Z,29.15
2019-02-07T13:44:17.883Z,31.77
2019-02-07T13:46:47.029Z,31.27
2019-02-07T13:49:32.476Z,30.50
2019-02-07T13:52:18.193Z,23.83
2019-02-07T13:54:59.608Z,24.63
2019-02-07T13:57:28.644Z,30.75
2019-02-07T14:00:03.575Z,36.77
2019-02-07T14:02:42.020Z,54.63
2019-02-07T14:05:26.140Z,31.82
2019-02-07T14:08:11.785Z,30.75
2019-02-07T14:10:41.033Z,38.65
2019-02-07T14:13:10.073Z,27.85
2019-02-07T14:15:48.036Z,22.98
2019-02-07T14:18:17.081Z,21.50
2019-02-07T14:20:48.551Z,22.85
2019-02-07T14:23:20.596Z,22.52
2019-02-07T14:25:58.258Z,20.17
2019-02-07T14:28:35.858Z,19.90
2019-02-07T14:31:06.251Z,19.52
2019-02-07T14:33:38.432Z,18.00
2019-02-07T14:36:07.477Z,20.20
2019-02-07T14:38:39.216Z,18.65
2019-02-07T14:41:08.263Z,18.82
2019-02-07T14:43:40.042Z,18.45
2019-02-07T14:46:11.923Z,21.07
2019-02-07T14:48:39.381Z,18.90
2019-02-07T14:51:06.848Z,17.20
2019-02-07T14:53:34.316Z,20.70
2019-02-07T14:56:01.784Z,22.40
2019-02-07T14:58:29.251Z,28.55
2019-02-07T15:00:56.729Z,25.17
2019-02-07T15:03:24.481Z,27.50
2019-02-07T15:05:51.945Z,25.50
2019-02-07T15:08:19.402Z,25.82
2019-02-07T15:10:46.909Z,25.95
2019-02-07T15:13:14.373Z,26.50
2019-02-07T15:15:41.860Z,23.45
2019-02-07T15:18:09.344Z,20.08
2019-02-07T15:20:37.297Z,17.00
2019-02-07T15:23:04.777Z,16.95
2019-02-07T15:25:32.235Z,18.00
2019-02-07T15:27:59.749Z,20.52
2019-02-07T15:30:27.212Z,25.23
2019-02-07T15:32:54.680Z,30.57
2019-02-07T15:35:23.712Z,40.60
2019-02-07T15:37:51.189Z,29.07
2019-02-07T15:40:20.204Z,26.45
2019-02-07T15:42:47.681Z,24.05
2019-02-07T15:45:15.150Z,28.25
2019-02-07T15:47:42.609Z,32.23
2019-02-07T15:50:11.648Z,29.42
2019-02-07T15:52:39.134Z,27.85
2019-02-07T15:55:06.596Z,25.55
2019-02-07T15:57:34.059Z,24.00
2019-02-07T16:00:02.364Z,25.80
2019-02-07T16:02:29.843Z,26.05
2019-02-07T16:04:57.905Z,49.33
2019-02-07T16:07:25.374Z,41.48
2019-02-07T16:09:52.844Z,24.90
2019-02-07T16:12:20.307Z,25.05
2019-02-07T16:14:47.780Z,28.35
2019-02-07T16:17:15.236Z,25.45
2019-02-07T16:19:42.708Z,23.10
2019-02-07T16:22:10.164Z,22.55
2019-02-07T16:24:37.636Z,22.27
2019-02-07T16:27:05.092Z,23.50
2019-02-07T16:29:32.572Z,23.73
2019-02-07T16:32:00.035Z,19.10
2019-02-07T16:34:27.522Z,22.48
2019-02-07T16:36:55.028Z,22.58
2019-02-07T16:39:22.496Z,22.15
2019-02-07T16:41:49.962Z,22.00
2019-02-07T16:44:17.433Z,23.87
2019-02-07T16:46:44.932Z,23.38
2019-02-07T16:49:12.369Z,23.77
2019-02-07T16:51:39.836Z,21.57
2019-02-07T16:54:07.303Z,20.68
2019-02-07T16:56:34.752Z,20.72
2019-02-07T16:59:02.221Z,23.02
2019-02-07T17:01:29.681Z,22.17
2019-02-07T17:03:57.145Z,20.10
2019-02-07T17:06:24.806Z,21.23
2019-02-07T17:08:52.276Z,20.52
2019-02-07T17:11:19.729Z,21.45
2019-02-07T17:13:47.192Z,20.65
2019-02-07T17:16:14.660Z,21.57
2019-02-07T17:18:42.124Z,19.20
2019-02-07T17:21:12.005Z,19.62
2019-02-07T17:23:38.700Z,18.32
2019-02-07T17:26:06.179Z,17.73
2019-02-07T17:28:33.636Z,20.27
2019-02-07T17:31:01.146Z,17.85
2019-02-07T17:33:28.606Z,17.98
2019-02-07T17:35:56.068Z,18.65
2019-02-07T17:38:23.536Z,18.75
2019-02-07T17:40:51.397Z,17.70
2019-02-07T17:43:18.910Z,18.70
2019-02-07T17:45:46.382Z,18.73
2019-02-07T17:48:13.913Z,18.07
2019-02-07T17:50:41.376Z,19.65
2019-02-07T17:53:09.438Z,19.67
2019-02-07T17:55:36.917Z,17.02
2019-02-07T17:58:05.198Z,18.10
2019-02-07T18:00:38.373Z,17.50
2019-02-07T18:03:05.828Z,18.62
2019-02-07T18:05:33.332Z,17.37
2019-02-07T18:08:00.802Z,15.38
2019-02-07T18:10:28.720Z,18.15
2019-02-07T18:12:56.348Z,15.80
2019-02-07T18:15:23.934Z,18.23
2019-02-07T18:17:51.395Z,17.60
2019-02-07T18:20:19.448Z,18.35
2019-02-07T18:22:46.923Z,15.72
2019-02-07T18:25:14.388Z,19.67
2019-02-07T18:27:42.127Z,18.40
2019-02-07T18:30:11.188Z,15.38
2019-02-07T18:32:38.957Z,42.33
2019-02-07T18:35:06.537Z,23.05
2019-02-07T18:37:33.996Z,17.37
2019-02-07T18:40:01.474Z,14.63
2019-02-07T18:42:29.006Z,15.78
2019-02-07T18:44:56.509Z,15.60
2019-02-07T18:47:23.956Z,13.68
2019-02-07T18:49:51.435Z,12.70
2019-02-07T18:52:18.884Z,12.63
2019-02-07T18:54:46.348Z,11.22
2019-02-07T18:57:15.724Z,47.25
2019-02-07T18:59:43.442Z,15.53
2019-02-07T19:02:10.881Z,16.30
2019-02-07T19:04:38.348Z,14.03
2019-02-07T19:07:05.805Z,15.58
2019-02-07T19:09:33.573Z,12.55
2019-02-07T19:12:01.043Z,12.03
2019-02-07T19:14:50.298Z,10.88
2019-02-07T19:16:32.872Z,11.15
2019-02-07T19:18:15.404Z,13.25
2019-02-07T19:19:57.966Z,13.93
2019-02-07T19:21:40.509Z,12.58
2019-02-07T19:23:23.053Z,11.73
2019-02-07T19:25:06.512Z,11.33
2019-02-07T19:26:49.060Z,14.30
2019-02-07T19:28:31.620Z,13.72
2019-02-07T19:30:19.084Z,11.97
2019-02-07T19:32:01.617Z,13.83
2019-02-07T19:33:45.984Z,13.10
2019-02-07T19:35:28.492Z,13.75
2019-02-07T19:37:11.202Z,23.55
2019-02-07T19:38:53.765Z,13.35
2019-02-07T19:40:36.523Z,12.07
2019-02-07T19:42:19.218Z,17.60
2019-02-07T19:44:01.824Z,14.58
2019-02-07T19:45:44.436Z,16.62
2019-02-07T19:47:27.048Z,15.32
2019-02-07T19:49:09.601Z,13.93
2019-02-07T19:50:53.715Z,13.40
2019-02-07T19:52:36.412Z,13.95
2019-02-07T19:54:19.153Z,17.77
2019-02-07T19:56:02.092Z,11.93
2019-02-07T19:57:44.679Z,14.87
2019-02-07T19:59:27.676Z,16.35
2019-02-07T20:01:10.223Z,12.73
2019-02-07T20:02:53.012Z,14.00
2019-02-07T20:04:35.653Z,12.98
2019-02-07T20:06:18.331Z,13.28
2019-02-07T20:08:00.890Z,12.80
2019-02-07T20:09:43.542Z,13.90
2019-02-07T20:11:26.119Z,13.28
2019-02-07T20:13:08.707Z,13.08
2019-02-07T20:14:51.262Z,13.20
2019-02-07T20:16:33.819Z,19.10
2019-02-07T20:18:16.372Z,14.58
2019-02-07T20:19:58.928Z,14.73
2019-02-07T20:21:41.481Z,12.93
2019-02-07T20:23:24.040Z,13.10
2019-02-07T20:25:08.296Z,12.98
2019-02-07T20:26:50.843Z,12.25
2019-02-07T20:28:33.434Z,11.88
2019-02-07T20:30:20.310Z,11.95
2019-02-07T20:32:02.915Z,14.30
2019-02-07T20:33:45.428Z,11.88
2019-02-07T20:35:27.992Z,11.78
2019-02-07T20:37:10.532Z,13.03
2019-02-07T20:38:53.094Z,25.88
2019-02-07T20:40:35.648Z,16.50
2019-02-07T20:42:18.504Z,15.88
2019-02-07T20:44:01.061Z,19.52
2019-02-07T20:45:44.030Z,15.50
2019-02-07T20:47:26.574Z,11.78
2019-02-07T20:49:09.141Z,11.33
2019-02-07T20:52:08.725Z,14.05
2019-02-07T20:54:36.667Z,14.30
2019-02-07T20:57:04.228Z,12.85
2019-02-07T20:59:31.788Z,12.00
2019-02-07T21:01:59.347Z,15.28
2019-02-07T21:04:26.892Z,11.83
2019-02-07T21:06:54.435Z,12.25
2019-02-07T21:09:22.009Z,12.65
2019-02-07T21:11:49.556Z,13.25
2019-02-07T21:14:17.448Z,13.58
2019-02-07T21:16:45.008Z,10.90
2019-02-07T21:19:12.563Z,11.80
2019-02-07T21:21:40.192Z,15.23
2019-02-07T21:24:07.736Z,13.65
2019-02-07T21:26:35.288Z,13.08
2019-02-07T21:29:02.847Z,12.85
2019-02-07T21:31:30.445Z,11.28
2019-02-07T21:33:58.194Z,11.18
2019-02-07T21:36:25.795Z,11.55
2019-02-07T21:38:53.300Z,10.48
2019-02-07T21:41:20.916Z,12.43
2019-02-07T21:43:48.468Z,12.78
2019-02-07T21:46:16.029Z,11.80
2019-02-07T21:48:43.597Z,11.78
2019-02-07T21:51:11.138Z,12.00
2019-02-07T21:53:38.928Z,10.50
2019-02-07T21:56:06.479Z,11.20
2019-02-07T21:58:34.038Z,11.57
2019-02-07T22:01:01.580Z,11.83
2019-02-07T22:03:29.140Z,10.23
2019-02-07T22:05:56.695Z,11.30
2019-02-07T22:08:24.250Z,10.23
2019-02-07T22:10:52.205Z,11.97
2019-02-07T22:13:19.763Z,10.23
2019-02-07T22:15:47.317Z,11.43
2019-02-07T22:18:14.871Z,12.23
2019-02-07T22:20:42.429Z,11.50
2019-02-07T22:23:09.988Z,11.10
2019-02-07T22:25:37.541Z,11.28
2019-02-07T22:28:05.487Z,10.48
2019-02-07T22:30:36.472Z,10.53
2019-02-07T22:33:04.328Z,11.55
2019-02-07T22:35:31.879Z,10.68
2019-02-07T22:37:59.440Z,9.75
2019-02-07T22:40:26.985Z,11.30
2019-02-07T22:42:54.545Z,11.05
2019-02-07T22:45:23.402Z,11.65
2019-02-07T22:47:50.953Z,10.85
2019-02-07T22:50:22.519Z,11.43
2019-02-07T22:52:56.736Z,10.10
2019-02-07T22:55:19.268Z,9.48
2019-02-07T22:57:46.838Z,10.43
2019-02-07T23:00:31.568Z,10.95
2019-02-07T23:02:59.131Z,9.83
2019-02-07T23:05:26.671Z,10.75
2019-02-07T23:07:54.245Z,10.82
2019-02-07T23:10:21.792Z,10.18
2019-02-07T23:12:49.353Z,10.18
2019-02-07T23:15:17.299Z,9.48
2019-02-07T23:17:44.857Z,10.23
2019-02-07T23:20:12.435Z,10.63
2019-02-07T23:22:39.984Z,11.12
2019-02-07T23:25:08.245Z,11.45
2019-02-07T23:27:35.787Z,10.53
2019-02-07T23:30:04.144Z,10.38
2019-02-07T23:32:31.991Z,9.40
2019-02-07T23:34:59.554Z,9.98
2019-02-07T23:37:27.166Z,9.80
2019-02-07T23:40:14.125Z,9.90
2019-02-07T23:42:41.722Z,10.18
2019-02-07T23:45:10.220Z,9.88
2019-02-07T23:47:37.815Z,10.78
2019-02-07T23:50:06.117Z,9.90
2019-02-07T23:52:33.704Z,9.30
2019-02-07T23:55:01.286Z,10.32
2019-02-07T23:57:28.820Z,9.65
2019-02-07T23:59:56.391Z,10.80
